Kankakee, IL

4:16 AM CDT on August 21, 2017 (GMT -0500)
Greater Kankakee

Weather History for KIKK - March, 2013

Change the Weather History Date:

Sunday, March 31, 2013

  Actual Average Record
Temperature  
Mean Temperature 50 °F -  
Max Temperature 60 °F 53 °F 84 °F (1986)
Min Temperature 38 °F 35 °F 17 °F (1987)
Degree Days  
Heating Degree Days 16    
Moisture  
Dew Point 37 °F    
Average Humidity 68    
Maximum Humidity 99    
Minimum Humidity 38    
Precipitation  
Precipitation 0.00 in - - ()
Sea Level Pressure  
Sea Level Pressure 29.81 in    
Wind  
Wind Speed 12 mph (West)    
Max Wind Speed 25 mph    
Max Gust Speed 33 mph    
Visibility 8 miles    
Events      
Averages and records for this station are not official NWS values.
T = Trace of Precipitation, MM = Missing Value Source: NWS Daily Summary

Daily Weather History Graph

Daily Weather History Graph

Search for Another Location

Airport or City:

Trip Planner

Search our weather history database for the weather conditions in past years. The results will help you decide how hot, cold, wet, or windy it might be!

Date:

Astronomy

Mar. 31, 2013 Rise Set
Actual Time 6:35 AM CDT 7:15 PM CDT
Civil Twilight 6:08 AM CDT 7:43 PM CDT
Nautical Twilight 5:35 AM CDT 8:16 PM CDT
Astronomical Twilight 5:01 AM CDT 8:50 PM CDT
Moon No Moon Rise 9:21 AM CDT (3/31)
Length of Visible Light 13h 35m
Length of Day
12h 39m
Waning Gibbous, 77% of the Moon is Illuminated
Mar 31
Waning Gibbous
Apr 2
Last Quarter
Apr 10
New
Apr 18
First Quarter
Apr 25
Full

Hourly Weather History & Observations

Time (CDT) Temp. Windchill Dew Point Humidity Pressure Visibility Wind Dir Wind Speed Gust Speed Precip Events Conditions
12:15 AM 44.8 °F 41.6 °F 40.1 °F 84% 29.88 in 10.0 mi SSW 5.8 mph - N/A   Overcast
12:35 AM 44.6 °F 40.7 °F 40.8 °F 87% 29.87 in 10.0 mi SSW 6.9 mph - N/A   Overcast
12:55 AM 45.3 °F 41.1 °F 41.2 °F 85% 29.86 in 10.0 mi SW 8.1 mph - N/A   Overcast
1:15 AM 45.5 °F 41.3 °F 41.5 °F 86% 29.85 in 10.0 mi SW 8.1 mph - N/A   Overcast
1:35 AM 45.9 °F 40.8 °F 41.9 °F 86% 29.85 in 10.0 mi SW 10.4 mph - N/A   Overcast
1:55 AM 45.1 °F 39.9 °F 42.8 °F 91% 29.85 in 5.0 mi SW 10.4 mph - N/A   Overcast
2:15 AM 45.0 °F 40.1 °F 43.2 °F 93% 29.84 in 4.0 mi WSW 9.2 mph - N/A   Overcast
2:35 AM 44.6 °F 39.7 °F 43.7 °F 97% 29.83 in 2.5 mi WSW 9.2 mph - N/A   Light Drizzle
2:55 AM 44.6 °F 38.8 °F 43.7 °F 97% 29.82 in 4.0 mi SW 11.5 mph 17.3 mph N/A   Overcast
3:15 AM 44.2 °F 38.8 °F 43.7 °F 98% 29.82 in 4.0 mi WSW 10.4 mph - N/A   Overcast
3:35 AM 44.1 °F 38.6 °F 43.5 °F 98% 29.82 in 3.0 mi WSW 10.4 mph - N/A   Overcast
3:55 AM 44.1 °F 38.6 °F 43.7 °F 99% 29.81 in 2.0 mi WSW 10.4 mph - N/A   Overcast
4:15 AM 44.2 °F 38.4 °F 43.9 °F 99% 29.81 in 2.0 mi WSW 11.5 mph - N/A   Overcast
4:35 AM 44.6 °F 39.2 °F 44.1 °F 98% 29.80 in 3.0 mi WSW 10.4 mph 16.1 mph N/A   Overcast
4:55 AM 44.6 °F 39.2 °F 43.9 °F 97% 29.80 in 4.0 mi West 10.4 mph - N/A   Overcast
5:15 AM 44.8 °F 39.9 °F 43.7 °F 96% 29.80 in 5.0 mi West 9.2 mph - N/A   Overcast
5:35 AM 44.8 °F 39.4 °F 43.3 °F 95% 29.80 in 5.0 mi West 10.4 mph 17.3 mph N/A   Overcast
5:55 AM 44.8 °F 39.4 °F 43.3 °F 95% 29.81 in 5.0 mi West 10.4 mph - N/A   Overcast
6:15 AM 44.6 °F 39.7 °F 43.0 °F 94% 29.81 in 5.0 mi West 9.2 mph - N/A   Overcast
6:35 AM 44.2 °F 39.7 °F 42.8 °F 95% 29.81 in 5.0 mi West 8.1 mph - N/A   Overcast
6:55 AM 43.7 °F 40.3 °F 42.8 °F 97% 29.80 in 4.0 mi West 5.8 mph - N/A   Overcast
7:15 AM 43.5 °F 38.3 °F 42.3 °F 95% 29.82 in 4.0 mi West 9.2 mph - N/A   Overcast
7:35 AM 43.0 °F 37.7 °F 41.0 °F 93% 29.82 in 7.0 mi West 9.2 mph - N/A   Scattered Clouds
7:55 AM 43.2 °F 37.4 °F 39.4 °F 86% 29.82 in 10.0 mi West 10.4 mph 17.3 mph N/A   Scattered Clouds
8:15 AM 44.1 °F 37.7 °F 39.0 °F 82% 29.82 in 10.0 mi West 12.7 mph 18.4 mph N/A   Mostly Cloudy
8:35 AM 44.1 °F 37.4 °F 39.2 °F 83% 29.82 in 10.0 mi West 13.8 mph - N/A   Overcast
8:55 AM 45.7 °F 39.1 °F 39.9 °F 80% 29.81 in 10.0 mi West 15.0 mph - N/A   Mostly Cloudy
9:15 AM 45.9 °F 39.4 °F 40.1 °F 80% 29.82 in 10.0 mi West 15.0 mph - N/A   Mostly Cloudy
9:35 AM 46.6 °F - 40.1 °F 78% 29.82 in 10.0 mi West 12.7 mph 18.4 mph N/A   Scattered Clouds
9:55 AM 48.0 °F - 40.1 °F 74% 29.82 in 10.0 mi West 15.0 mph 20.7 mph N/A   Scattered Clouds
10:15 AM 48.7 °F - 39.9 °F 72% 29.82 in 10.0 mi West 11.5 mph - N/A   Clear
10:35 AM 50.0 °F - 40.3 °F 69% 29.81 in 10.0 mi West 13.8 mph 18.4 mph N/A   Clear
10:55 AM 50.5 °F - 40.3 °F 68% 29.81 in 10.0 mi West 15.0 mph 19.6 mph N/A   Clear
11:15 AM 52.0 °F - 39.9 °F 63% 29.80 in 10.0 mi West 15.0 mph - N/A   Clear
11:35 AM 53.2 °F - 39.4 °F 59% 29.81 in 10.0 mi West 11.5 mph 18.4 mph N/A   Clear
11:55 AM 55.0 °F - 37.9 °F 53% 29.80 in 10.0 mi West 15.0 mph 19.6 mph N/A   Clear
12:15 PM 56.1 °F - 37.8 °F 50% 29.79 in 10.0 mi West 17.3 mph 21.9 mph N/A   Clear
12:35 PM 57.6 °F - 37.4 °F 47% 29.78 in 10.0 mi West 13.8 mph 19.6 mph N/A   Clear
12:55 PM 58.5 °F - 37.2 °F 45% 29.77 in 10.0 mi WSW 12.7 mph 20.7 mph N/A   Clear
1:15 PM 58.6 °F - 37.0 °F 45% 29.76 in 10.0 mi West 15.0 mph 24.2 mph N/A   Scattered Clouds
1:35 PM 59.2 °F - 35.8 °F 42% 29.76 in 10.0 mi West 19.6 mph 26.5 mph N/A   Scattered Clouds
1:55 PM 59.5 °F - 36.3 °F 42% 29.75 in 10.0 mi West 19.6 mph 26.5 mph N/A   Scattered Clouds
2:15 PM 59.9 °F - 34.7 °F 39% 29.75 in 10.0 mi West 20.7 mph 28.8 mph N/A   Scattered Clouds
2:35 PM 58.6 °F - 35.1 °F 41% 29.75 in 10.0 mi West 23.0 mph 29.9 mph N/A   Mostly Cloudy
2:55 PM 57.7 °F - 35.2 °F 43% 29.74 in 10.0 mi West 19.6 mph 28.8 mph N/A   Overcast
3:15 PM 60.4 °F - 36.1 °F 40% 29.74 in 10.0 mi West 20.7 mph 28.8 mph N/A   Mostly Cloudy
3:35 PM 57.4 °F - 34.2 °F 42% 29.74 in 10.0 mi WNW 15.0 mph 24.2 mph N/A   Overcast
3:55 PM 57.6 °F - 34.7 °F 42% 29.74 in 10.0 mi WNW 17.3 mph 26.5 mph N/A   Overcast
4:15 PM 58.3 °F - 34.9 °F 41% 29.74 in 10.0 mi West 24.2 mph 31.1 mph N/A   Mostly Cloudy
4:35 PM 58.6 °F - 34.0 °F 40% 29.74 in 10.0 mi WNW 24.2 mph 28.8 mph N/A   Mostly Cloudy
4:55 PM 57.4 °F - 32.4 °F 39% 29.74 in 10.0 mi West 25.3 mph 29.9 mph N/A   Scattered Clouds
5:15 PM 56.8 °F - 31.1 °F 38% 29.75 in 10.0 mi WNW 18.4 mph 33.4 mph N/A   Scattered Clouds
5:35 PM 56.1 °F - 32.5 °F 41% 29.76 in 10.0 mi West 24.2 mph 32.2 mph N/A   Clear
5:55 PM 54.7 °F - 32.2 °F 42% 29.77 in 10.0 mi West 20.7 mph 26.5 mph N/A   Clear
6:15 PM 52.9 °F - 29.1 °F 40% 29.77 in 10.0 mi West 23.0 mph 31.1 mph N/A   Clear
6:35 PM 50.5 °F - 32.4 °F 50% 29.79 in 10.0 mi WNW 18.4 mph 26.5 mph N/A   Clear
6:55 PM 49.1 °F - 30.6 °F 49% 29.80 in 10.0 mi WNW 17.3 mph 24.2 mph N/A   Clear
7:15 PM 47.8 °F - 31.6 °F 53% 29.80 in 10.0 mi WNW 10.4 mph 21.9 mph N/A   Clear
7:35 PM 47.3 °F - 32.0 °F 55% 29.81 in 10.0 mi WNW 12.7 mph - N/A   Clear
7:55 PM 46.6 °F - 32.0 °F 57% 29.81 in 10.0 mi WNW 12.7 mph - N/A   Clear
8:15 PM 46.4 °F 39.2 °F 31.6 °F 56% 29.82 in 10.0 mi WNW 18.4 mph 26.5 mph N/A   Clear
8:35 PM 45.5 °F 38.9 °F 27.0 °F 48% 29.83 in 10.0 mi WNW 15.0 mph 21.9 mph N/A   Clear
8:55 PM 42.8 °F 35.1 °F 32.2 °F 66% 29.85 in 10.0 mi NW 16.1 mph 23.0 mph N/A   Clear
9:15 PM 41.2 °F 34.1 °F 31.1 °F 67% 29.87 in 10.0 mi NW 12.7 mph 26.5 mph N/A   Clear
9:35 PM 40.1 °F 32.7 °F 28.8 °F 64% 29.88 in 10.0 mi NW 12.7 mph 19.6 mph N/A   Clear
9:55 PM 39.4 °F 32.3 °F 28.2 °F 64% 29.88 in 10.0 mi NW 11.5 mph 16.1 mph N/A   Clear
10:15 PM 39.6 °F 33.5 °F 28.6 °F 65% 29.89 in 10.0 mi NW 9.2 mph 16.1 mph N/A   Mostly Cloudy
10:35 PM 39.6 °F 34.7 °F 28.8 °F 65% 29.89 in 10.0 mi NW 6.9 mph - N/A   Mostly Cloudy
10:55 PM 39.4 °F 32.7 °F 28.2 °F 64% 29.89 in 10.0 mi NW 10.4 mph 16.1 mph N/A   Scattered Clouds
11:15 PM 39.2 °F 32.0 °F 27.0 °F 62% 29.89 in 10.0 mi NW 11.5 mph 18.4 mph N/A   Scattered Clouds
11:35 PM 39.2 °F 33.6 °F 26.1 °F 59% 29.89 in 10.0 mi NW 8.1 mph 17.3 mph N/A   Scattered Clouds
11:55 PM 38.7 °F 32.4 °F 26.2 °F 61% 29.90 in 10.0 mi WNW 9.2 mph 17.3 mph N/A   Scattered Clouds